Samish Island, Washington
Current Conditions -  °F | °C
As of 9:53 PM on Thursday 30 Oct 2014 (Local Time) from KBLI Reporting Station
Light Rain Light Rain  
Wind Chill: 54°   Ceiling: 4500
Heat Index: 54°   Visibility: 8mi
Dew Point: 50°   Wind: 3mph
Humidity: 86%   Direction: 160°SSE
Pressure: 29.76"   Gusts: NA
Location:  48.5689°N, 122.407°W
Report Text: KBLI 310453Z 16003KT 8SM -RA OVC045 12/10 A2976 RMK AO2 SLP085 P0004 T01220100
Loading
Personal Weather Stations






























Interactive Weather Map
Tropical Storm Tracking
New forecast layout! Learn more

10-Day Weather Forecast

Advertisements
Track Severe Weather on mobile